Time;durP1;ratioP1;P1;durP2;ratioP2;P2;SDS_P1;SDS_P2;PMS_P1;PMS_P2;Temp;Humidity;BMP_temperature;BMP_pressure;BME280_temperature;BME280_humidity;BME280_pressure;Samples;Min_cycle;Max_cycle;Signal;HPM_P1;HPM_P2
2023/06/15 00:02:27;;;;;;;3.62;1.90;;;;;;;19.58;49.49;99470.16;4358706;32;34816;-61
2023/06/15 00:04:55;;;;;;;11.65;2.37;;;;;;;19.48;49.82;99464.94;4359109;32;34006;-61
2023/06/15 00:07:22;;;;;;;5.22;2.28;;;;;;;19.46;49.85;99464.31;4359077;32;33882;-60
2023/06/15 00:09:50;;;;;;;5.93;2.58;;;;;;;19.45;49.97;99465.31;4360111;32;35279;-60
2023/06/15 00:12:17;;;;;;;5.22;2.45;;;;;;;19.27;50.60;99463.72;4360830;32;33640;-61
2023/06/15 00:14:45;;;;;;;3.42;2.03;;;;;;;19.13;51.05;99464.44;4358992;32;34568;-61
2023/06/15 00:17:14;;;;;;;4.72;2.17;;;;;;;19.27;50.70;99462.88;4358677;32;33823;-61
2023/06/15 00:19:44;;;;;;;5.40;2.33;;;;;;;19.33;50.58;99459.47;4359136;32;34819;-61
2023/06/15 00:22:15;;;;;;;3.53;2.20;;;;;;;19.29;50.73;99463.53;4360155;32;35087;-61
2023/06/15 00:24:42;;;;;;;5.28;2.70;;;;;;;19.27;50.85;99463.72;4358633;32;32943;-61
2023/06/15 00:27:10;;;;;;;2.90;1.67;;;;;;;19.29;50.64;99453.53;4357716;32;33712;-61
2023/06/15 00:29:38;;;;;;;3.78;2.00;;;;;;;19.27;50.66;99458.28;4357097;32;33839;-61
2023/06/15 00:32:07;;;;;;;8.00;2.00;;;;;;;19.32;50.44;99463.16;4357214;32;34438;-60
2023/06/15 00:34:34;;;;;;;5.28;2.33;;;;;;;19.38;50.19;99454.31;4356893;32;34615;-61
2023/06/15 00:37:02;;;;;;;4.07;2.08;;;;;;;19.31;50.13;99454.19;4355826;32;33654;-61
2023/06/15 00:39:31;;;;;;;7.65;2.72;;;;;;;19.39;50.03;99455.16;4358543;32;34981;-61
2023/06/15 00:41:59;;;;;;;3.55;2.20;;;;;;;19.38;50.01;99459.75;4360024;32;33429;-61
2023/06/15 00:44:27;;;;;;;5.47;1.95;;;;;;;19.40;50.00;99460.44;4355792;32;34168;-62
2023/06/15 00:46:56;;;;;;;3.00;1.85;;;;;;;19.41;49.94;99461.25;4358709;32;34228;-61
2023/06/15 00:49:24;;;;;;;4.87;2.45;;;;;;;19.40;49.94;99459.59;4343986;32;34191;-62
2023/06/15 00:51:52;;;;;;;6.32;2.37;;;;;;;19.27;50.21;99454.72;4358801;32;34521;-62
2023/06/15 00:54:23;;;;;;;4.00;2.03;;;;;;;19.28;50.05;99456.41;4343571;32;32424;-61
2023/06/15 00:56:51;;;;;;;4.47;1.92;;;;;;;19.28;49.99;99453.69;4358385;32;33502;-61
2023/06/15 00:59:19;;;;;;;2.28;1.25;;;;;;;19.20;50.28;99457.31;4346111;32;33739;-61
2023/06/15 01:01:54;;;;;;;6.03;2.22;;;;;;;19.05;50.67;99459.06;4344032;32;33914;-61
2023/06/15 01:04:25;;;;;;;;;;;;;;;19.07;50.60;99455.16;4355801;32;33432;-61
2023/06/15 01:07:01;;;;;;;4.05;2.20;;;;;;;19.07;50.58;99452.47;4356446;32;34323;-61
2023/06/15 01:09:30;;;;;;;13.15;2.60;;;;;;;18.98;51.01;99456.22;4340554;32;34158;-62
2023/06/15 01:11:58;;;;;;;3.35;1.95;;;;;;;18.92;51.21;99450.66;4343936;32;33812;-61
2023/06/15 01:14:28;;;;;;;2.22;1.33;;;;;;;18.96;51.03;99455.53;4356720;32;32990;-60
2023/06/15 01:17:13;;;;;;;7.28;2.28;;;;;;;18.92;51.16;99453.38;4355130;32;33744;-60
2023/06/15 01:19:57;;;;;;;2.95;1.62;;;;;;;18.88;51.14;99450.16;4356643;32;33899;-61
2023/06/15 01:22:49;;;;;;;4.87;1.73;;;;;;;18.96;51.12;99452.00;4357272;32;34017;-60
2023/06/15 01:25:29;;;;;;;4.47;1.60;;;;;;;18.90;51.47;99447.25;4342230;32;33609;-60
2023/06/15 01:27:58;;;;;;;4.30;2.25;;;;;;;18.99;51.37;99443.50;4346829;32;33096;-60
2023/06/15 01:30:55;;;;;;;5.10;2.65;;;;;;;18.97;51.32;99432.84;4357677;32;35248;-60
2023/06/15 01:33:24;;;;;;;5.18;2.05;;;;;;;18.97;51.41;99434.69;4342793;32;34726;-60
2023/06/15 01:35:52;;;;;;;3.03;1.92;;;;;;;18.98;51.38;99434.53;4344420;32;33227;-60
2023/06/15 01:38:23;;;;;;;3.40;2.25;;;;;;;19.02;51.30;99437.72;4359023;32;33414;-60
2023/06/15 01:40:51;;;;;;;2.75;2.05;;;;;;;19.04;51.25;99433.81;4344650;32;33749;-60
2023/06/15 01:43:31;;;;;;;5.43;2.12;;;;;;;18.94;51.51;99444.03;4358575;32;34800;-60
2023/06/15 01:45:59;;;;;;;2.92;1.60;;;;;;;18.93;51.35;99444.19;4343601;32;33471;-60
2023/06/15 01:48:28;;;;;;;5.32;2.47;;;;;;;18.91;51.09;99441.69;4356537;32;33638;-61
2023/06/15 01:50:56;;;;;;;3.80;2.62;;;;;;;18.88;50.94;99444.75;4355463;32;32756;-60
2023/06/15 01:53:23;;;;;;;4.03;2.17;;;;;;;18.85;51.20;99439.66;4343796;32;34135;-60
2023/06/15 01:55:53;;;;;;;6.32;2.60;;;;;;;18.83;51.28;99441.69;4342904;32;33471;-60
2023/06/15 01:58:21;;;;;;;3.92;2.03;;;;;;;18.77;51.31;99432.38;4355077;32;33474;-60
2023/06/15 02:00:48;;;;;;;2.90;1.45;;;;;;;18.77;51.19;99434.25;4357395;32;34166;-60
2023/06/15 02:03:16;;;;;;;6.35;2.55;;;;;;;18.75;50.92;99441.75;4355936;32;34026;-60
2023/06/15 02:05:44;;;;;;;7.22;2.08;;;;;;;18.65;51.14;99436.50;4356440;32;33161;-60
2023/06/15 02:08:14;;;;;;;6.32;2.45;;;;;;;18.43;51.70;99445.34;4354536;32;33781;-60
2023/06/15 02:10:42;;;;;;;3.47;1.85;;;;;;;18.48;51.52;99442.97;4354765;32;35037;-60
2023/06/15 02:13:12;;;;;;;3.90;2.35;;;;;;;18.50;51.49;99440.94;4355568;32;33673;-60
2023/06/15 02:15:40;;;;;;;4.18;1.58;;;;;;;18.46;51.72;99447.69;4357196;32;33622;-60
2023/06/15 02:18:14;;;;;;;5.45;2.15;;;;;;;18.43;51.89;99442.66;4358023;32;33962;-60
2023/06/15 02:20:44;;;;;;;3.10;1.90;;;;;;;18.36;52.26;99443.34;4353307;32;34030;-61
2023/06/15 02:23:12;;;;;;;5.07;2.58;;;;;;;18.29;52.37;99447.72;4360300;32;34207;-61
2023/06/15 02:25:40;;;;;;;3.95;1.98;;;;;;;18.32;52.28;99447.38;4356823;32;33195;-61
2023/06/15 02:28:08;;;;;;;3.62;1.92;;;;;;;18.42;52.17;99446.34;4353261;32;34411;-61
2023/06/15 02:30:36;;;;;;;5.82;2.60;;;;;;;18.36;52.45;99445.16;4354329;32;34049;-61
2023/06/15 02:33:05;;;;;;;4.07;2.08;;;;;;;18.41;52.22;99439.25;4358388;32;34645;-60
2023/06/15 02:35:33;;;;;;;6.28;2.17;;;;;;;18.44;52.11;99441.62;4356892;32;33601;-60
2023/06/15 02:38:00;;;;;;;1.95;1.42;;;;;;;18.49;51.86;99439.22;4359725;32;33804;-61
2023/06/15 02:40:28;;;;;;;4.05;2.08;;;;;;;18.52;51.71;99442.47;4359004;32;35626;-61
2023/06/15 02:42:56;;;;;;;3.28;2.10;;;;;;;18.53;51.74;99444.13;4356727;32;33501;-60
2023/06/15 02:45:23;;;;;;;4.10;2.15;;;;;;;18.54;51.76;99442.28;4357763;32;33615;-61
2023/06/15 02:47:51;;;;;;;3.15;1.77;;;;;;;18.57;51.78;99440.06;4356133;32;33605;-61
2023/06/15 02:50:19;;;;;;;3.72;1.77;;;;;;;18.58;51.64;99449.03;4359821;32;34832;-61
2023/06/15 02:52:47;;;;;;;3.35;1.83;;;;;;;18.62;51.07;99439.56;4358714;32;34100;-61
2023/06/15 02:55:15;;;;;;;4.03;2.15;;;;;;;18.62;51.10;99442.25;4356904;32;34204;-61
2023/06/15 02:57:44;;;;;;;3.45;1.85;;;;;;;18.57;51.35;99444.63;4358933;32;34368;-60
2023/06/15 03:00:13;;;;;;;6.87;2.42;;;;;;;18.55;51.27;99438.53;4357690;32;34803;-60
2023/06/15 03:02:43;;;;;;;3.17;1.85;;;;;;;18.54;51.33;99444.97;4358106;32;34097;-61
2023/06/15 03:05:13;;;;;;;4.00;2.25;;;;;;;18.53;51.41;99437.87;4359043;32;33627;-61
2023/06/15 03:07:42;;;;;;;3.40;1.85;;;;;;;18.53;51.58;99443.28;4358796;32;33352;-61
2023/06/15 03:10:10;;;;;;;2.97;1.73;;;;;;;18.54;51.50;99442.28;4358921;32;33876;-61
2023/06/15 03:12:39;;;;;;;4.97;2.42;;;;;;;18.58;51.41;99446.31;4357899;32;33690;-61
2023/06/15 03:15:08;;;;;;;4.80;2.37;;;;;;;18.56;51.78;99441.09;4357244;32;33287;-61
2023/06/15 03:17:36;;;;;;;3.42;2.05;;;;;;;18.61;51.76;99440.53;4359339;32;33691;-60
2023/06/15 03:20:07;;;;;;;4.57;2.33;;;;;;;18.49;52.13;99441.94;4359926;32;33765;-60
2023/06/15 03:22:35;;;;;;;5.20;2.05;;;;;;;18.67;51.58;99448.00;4358751;32;33608;-60
2023/06/15 03:25:03;;;;;;;3.25;1.80;;;;;;;18.78;51.26;99444.06;4357718;32;33162;-60
2023/06/15 03:27:32;;;;;;;3.17;1.83;;;;;;;18.78;51.32;99449.50;4358908;32;35399;-61
2023/06/15 03:30:05;;;;;;;3.72;1.95;;;;;;;18.75;51.10;99458.84;4358726;32;33576;-61
2023/06/15 03:32:33;;;;;;;5.60;3.22;;;;;;;18.87;50.72;99455.75;4354603;32;33784;-61
2023/06/15 03:35:03;;;;;;;6.90;2.60;;;;;;;18.90;50.59;99456.25;4359602;32;34529;-70
2023/06/15 03:37:31;;;;;;;2.37;1.48;;;;;;;18.90;50.82;99452.69;4356918;32;31701;-62
2023/06/15 03:39:59;;;;;;;3.78;1.95;;;;;;;18.90;50.82;99461.66;4355626;32;34165;-61
2023/06/15 03:42:28;;;;;;;4.87;2.75;;;;;;;18.83;51.14;99456.09;4358375;32;34574;-61
2023/06/15 03:44:55;;;;;;;4.60;2.40;;;;;;;18.84;51.01;99457.81;4357398;32;33352;-61
2023/06/15 03:47:23;;;;;;;4.55;2.08;;;;;;;19.02;50.69;99462.13;4357942;32;33795;-61
2023/06/15 03:49:50;;;;;;;3.28;1.85;;;;;;;19.08;50.53;99467.69;4358701;32;34855;-63
2023/06/15 03:52:18;;;;;;;2.67;1.87;;;;;;;19.22;49.64;99462.56;4359263;32;33752;-63
2023/06/15 03:54:46;;;;;;;3.45;2.15;;;;;;;19.29;49.06;99463.53;4356625;32;33638;-62
2023/06/15 03:57:13;;;;;;;3.58;2.03;;;;;;;19.38;48.96;99465.16;4358440;32;32373;-63
2023/06/15 03:59:41;;;;;;;2.80;1.95;;;;;;;19.50;48.47;99468.34;4358410;32;33901;-63
2023/06/15 04:02:08;;;;;;;5.03;2.42;;;;;;;19.57;48.30;99466.59;4356251;32;35197;-63
2023/06/15 04:04:39;;;;;;;4.55;2.22;;;;;;;19.59;48.29;99459.13;4356986;32;34140;-62
2023/06/15 04:07:08;;;;;;;3.12;2.08;;;;;;;19.75;47.76;99460.91;4354119;32;33667;-61
2023/06/15 04:09:36;;;;;;;3.90;2.33;;;;;;;19.82;47.68;99470.03;4356685;32;34523;-62
2023/06/15 04:12:05;;;;;;;8.15;2.30;;;;;;;19.89;47.91;99468.25;4356381;32;33561;-61
2023/06/15 04:14:33;;;;;;;3.67;2.00;;;;;;;20.00;47.98;99465.13;4342220;32;34087;-61
2023/06/15 04:17:00;;;;;;;5.07;1.83;;;;;;;20.08;48.16;99466.94;4358125;32;33719;-61
2023/06/15 04:19:29;;;;;;;4.65;2.75;;;;;;;20.22;48.12;99473.44;4355367;32;34729;-61
2023/06/15 04:21:56;;;;;;;18.30;2.58;;;;;;;20.24;48.77;99477.66;4356185;32;35213;-61
2023/06/15 04:24:24;;;;;;;3.45;2.12;;;;;;;20.37;48.86;99473.47;4361150;32;34239;-62
2023/06/15 04:26:52;;;;;;;3.75;2.20;;;;;;;20.52;48.87;99473.53;4353621;32;34471;-61
2023/06/15 04:29:22;;;;;;;8.02;4.72;;;;;;;20.65;48.71;99474.56;4359011;32;33816;-61
2023/06/15 04:31:54;;;;;;;6.85;3.62;;;;;;;20.75;48.44;99477.03;4352358;32;34750;-62
2023/06/15 04:34:26;;;;;;;5.05;2.72;;;;;;;20.78;48.12;99484.81;4358317;32;33494;-61
2023/06/15 04:36:54;;;;;;;4.70;2.50;;;;;;;20.83;47.85;99479.62;4359895;32;33476;-62
2023/06/15 04:39:24;;;;;;;5.50;2.78;;;;;;;20.87;47.90;99472.81;4359911;32;33856;-61
2023/06/15 04:41:54;;;;;;;7.32;2.40;;;;;;;20.98;47.83;99478.81;4359691;32;33557;-61
2023/06/15 04:44:22;;;;;;;4.50;2.30;;;;;;;20.99;47.71;99478.59;4357541;32;32746;-61
2023/06/15 04:46:49;;;;;;;6.47;3.00;;;;;;;21.07;47.84;99480.41;4357448;32;33491;-61
2023/06/15 04:49:17;;;;;;;5.53;2.55;;;;;;;21.13;47.85;99479.66;4360802;32;33812;-61
2023/06/15 04:51:45;;;;;;;4.57;3.15;;;;;;;21.09;48.15;99481.91;4357871;32;34909;-61
2023/06/15 04:54:13;;;;;;;3.90;2.22;;;;;;;21.24;48.30;99481.88;4360330;32;34272;-61
2023/06/15 04:56:41;;;;;;;5.03;2.95;;;;;;;21.28;48.40;99483.16;4357990;32;33620;-61
2023/06/15 04:59:08;;;;;;;5.75;2.83;;;;;;;21.20;48.34;99496.06;4357649;32;35726;-61
2023/06/15 05:01:36;;;;;;;3.87;2.42;;;;;;;21.35;48.03;99489.59;4355852;32;33084;-61
2023/06/15 05:04:05;;;;;;;6.35;3.45;;;;;;;21.47;47.73;99489.91;4360615;32;33083;-61
2023/06/15 05:06:33;;;;;;;6.35;3.15;;;;;;;21.54;48.20;99496.31;4356469;32;33835;-61
2023/06/15 05:09:01;;;;;;;4.43;2.62;;;;;;;21.68;47.62;99491.00;4357727;32;33935;-62
2023/06/15 05:11:29;;;;;;;5.93;2.97;;;;;;;21.77;47.82;99490.69;4358995;32;34096;-62
2023/06/15 05:13:57;;;;;;;4.10;2.28;;;;;;;21.84;47.25;99494.34;4359455;32;34279;-62
2023/06/15 05:16:25;;;;;;;6.45;2.92;;;;;;;21.83;47.65;99497.25;4359717;32;34846;-61
2023/06/15 05:18:54;;;;;;;5.62;2.72;;;;;;;21.94;47.84;99496.72;4357976;32;34260;-62
2023/06/15 05:21:22;;;;;;;5.03;2.65;;;;;;;21.95;47.89;99501.12;4359061;32;34302;-61
2023/06/15 05:23:51;;;;;;;5.68;2.90;;;;;;;22.09;47.06;99505.69;4358739;32;34091;-60
2023/06/15 05:26:19;;;;;;;7.65;2.78;;;;;;;22.20;46.89;99514.41;4357460;32;34499;-61
2023/06/15 05:28:58;;;;;;;5.18;2.72;;;;;;;21.93;46.92;99521.47;4357375;32;35308;-61
2023/06/15 05:31:25;;;;;;;8.00;3.33;;;;;;;22.01;46.35;99513.16;4357914;32;34099;-61
2023/06/15 05:33:54;;;;;;;8.15;3.62;;;;;;;22.04;46.51;99519.06;4354837;32;34374;-61
2023/06/15 05:36:25;;;;;;;6.95;3.12;;;;;;;21.93;47.18;99522.31;4356292;32;34771;-61
2023/06/15 05:39:13;;;;;;;6.50;3.33;;;;;;;21.52;46.73;99519.31;4358763;32;34633;-61
2023/06/15 05:41:40;;;;;;;9.07;3.83;;;;;;;22.04;45.49;99519.06;4357900;32;35468;-61
2023/06/15 05:44:10;;;;;;;5.93;3.40;;;;;;;22.18;45.28;99517.31;4360244;32;33348;-61
2023/06/15 05:46:38;;;;;;;5.32;2.22;;;;;;;22.05;45.91;99533.50;4355293;32;33642;-61
2023/06/15 05:49:06;;;;;;;6.85;2.55;;;;;;;22.11;43.63;99527.28;4357349;32;34830;-61
2023/06/15 05:51:33;;;;;;;7.22;2.80;;;;;;;21.99;44.57;99534.28;4357981;32;33988;-61
2023/06/15 05:54:02;;;;;;;5.45;2.62;;;;;;;21.99;44.56;99535.16;4353025;32;220264;-61
2023/06/15 05:56:32;;;;;;;4.93;2.58;;;;;;;22.16;44.22;99530.31;4358338;32;33988;-61
2023/06/15 05:59:00;;;;;;;4.53;2.53;;;;;;;22.09;45.28;99532.94;4356549;32;33953;-63
2023/06/15 06:01:29;;;;;;;9.40;3.10;;;;;;;22.10;45.63;99540.06;4358036;32;33916;-64
2023/06/15 06:03:57;;;;;;;12.52;4.20;;;;;;;21.97;45.69;99544.56;4357106;32;33607;-60
2023/06/15 06:06:24;;;;;;;5.82;3.00;;;;;;;21.97;45.09;99536.37;4357895;32;34066;-60
2023/06/15 06:08:52;;;;;;;5.72;2.80;;;;;;;22.01;45.75;99543.13;4357728;32;35022;-60
2023/06/15 06:11:20;;;;;;;17.77;3.30;;;;;;;21.99;45.66;99540.59;4360134;32;33694;-60
2023/06/15 06:13:48;;;;;;;4.43;2.42;;;;;;;22.23;45.65;99536.66;4361884;32;33076;-60
2023/06/15 06:16:15;;;;;;;5.75;2.17;;;;;;;22.28;44.63;99545.13;4355866;32;33970;-60
2023/06/15 06:18:44;;;;;;;6.18;3.28;;;;;;;22.37;44.54;99545.81;4349151;32;34061;-60
2023/06/15 06:21:11;;;;;;;5.85;2.78;;;;;;;22.20;45.72;99536.22;4358382;32;33291;-61
2023/06/15 06:23:40;;;;;;;5.85;3.50;;;;;;;22.42;45.29;99537.91;4356749;32;33689;-60
2023/06/15 06:26:08;;;;;;;7.30;3.55;;;;;;;22.50;45.41;99537.78;4359223;32;34775;-60
2023/06/15 06:28:36;;;;;;;5.57;3.28;;;;;;;22.66;45.09;99542.06;4356951;32;33980;-60
2023/06/15 06:31:04;;;;;;;6.62;2.33;;;;;;;22.58;44.61;99541.38;4358599;32;33649;-61
2023/06/15 06:33:32;;;;;;;8.45;3.22;;;;;;;22.70;45.34;99550.72;4354704;32;33153;-60
2023/06/15 06:35:59;;;;;;;7.20;3.42;;;;;;;22.72;44.83;99548.63;4358143;32;33885;-60
2023/06/15 06:38:26;;;;;;;8.10;4.18;;;;;;;22.71;44.56;99542.31;4359379;32;33383;-61
2023/06/15 06:40:55;;;;;;;7.53;2.80;;;;;;;22.78;45.08;99543.22;4358806;32;33607;-61
2023/06/15 06:43:22;;;;;;;11.20;3.47;;;;;;;22.84;44.76;99546.19;4342399;32;33180;-61
2023/06/15 06:45:50;;;;;;;7.87;3.03;;;;;;;23.11;44.16;99548.09;4342600;32;34059;-61
2023/06/15 06:48:18;;;;;;;5.60;3.30;;;;;;;23.11;44.57;99550.81;4341662;32;34035;-62
2023/06/15 06:50:46;;;;;;;5.05;3.03;;;;;;;23.29;44.33;99542.09;4340832;32;33787;-62
2023/06/15 06:53:13;;;;;;;6.12;3.22;;;;;;;23.46;43.28;99546.16;4340743;32;33247;-62
2023/06/15 06:55:43;;;;;;;8.10;3.92;;;;;;;23.39;43.54;99548.03;4340168;32;33880;-61
2023/06/15 06:58:11;;;;;;;9.05;3.30;;;;;;;23.49;43.39;99550.38;4341279;32;34221;-61
2023/06/15 07:00:38;;;;;;;5.82;2.75;;;;;;;23.39;43.51;99545.31;4333457;32;33441;-61
2023/06/15 07:03:06;;;;;;;5.47;2.90;;;;;;;23.27;44.58;99552.37;4337711;32;34261;-61
2023/06/15 07:05:36;;;;;;;7.37;3.00;;;;;;;23.72;43.13;99550.09;4337802;32;33516;-61
2023/06/15 07:08:03;;;;;;;7.43;2.78;;;;;;;23.85;41.99;99550.16;4339955;32;34129;-61
2023/06/15 07:10:31;;;;;;;4.75;2.45;;;;;;;23.93;42.24;99536.28;4339604;32;35291;-60
2023/06/15 07:12:59;;;;;;;5.05;2.60;;;;;;;24.17;41.54;99545.81;4339140;32;33231;-61
2023/06/15 07:15:27;;;;;;;13.05;3.03;;;;;;;23.70;42.55;99535.81;4341247;32;33627;-62
2023/06/15 07:17:55;;;;;;;4.72;2.35;;;;;;;23.66;41.39;99543.53;4338814;32;33825;-61
2023/06/15 07:20:22;;;;;;;6.32;2.25;;;;;;;23.86;39.73;99538.16;4342423;32;34212;-61
2023/06/15 07:22:50;;;;;;;6.10;3.25;;;;;;;24.13;39.60;99539.06;4356934;32;33419;-61
2023/06/15 07:25:18;;;;;;;6.10;3.40;;;;;;;24.18;41.10;99542.03;4355538;32;33963;-61
2023/06/15 07:27:46;;;;;;;6.05;3.47;;;;;;;24.13;41.22;99541.78;4358573;32;34662;-61
2023/06/15 07:30:13;;;;;;;8.15;3.55;;;;;;;24.44;40.90;99539.56;4357420;32;33686;-61
2023/06/15 07:32:42;;;;;;;4.80;3.10;;;;;;;24.62;39.87;99534.28;4355535;32;32966;-61
2023/06/15 07:35:10;;;;;;;8.30;2.78;;;;;;;24.55;40.01;99530.72;4356450;32;33779;-61
2023/06/15 07:37:37;;;;;;;5.53;2.95;;;;;;;24.52;39.37;99531.13;4356134;32;33907;-62
2023/06/15 07:40:06;;;;;;;7.10;3.00;;;;;;;24.08;40.85;99538.88;4355455;32;33757;-62
2023/06/15 07:42:33;;;;;;;5.62;2.75;;;;;;;24.54;40.11;99532.62;4356819;32;34644;-62
2023/06/15 07:45:01;;;;;;;11.20;2.47;;;;;;;24.64;39.88;99529.47;4354581;32;33949;-63
2023/06/15 07:47:29;;;;;;;7.30;3.17;;;;;;;24.54;38.33;99532.62;4358277;32;33839;-62
2023/06/15 07:49:56;;;;;;;5.03;3.15;;;;;;;24.49;39.40;99528.81;4355224;32;33497;-62
2023/06/15 07:52:24;;;;;;;7.80;3.85;;;;;;;24.73;39.43;99530.94;4354433;32;34250;-63
2023/06/15 07:54:52;;;;;;;6.10;3.22;;;;;;;24.20;39.60;99525.41;4354860;32;33804;-62
2023/06/15 07:57:20;;;;;;;7.53;3.12;;;;;;;24.73;38.36;99521.87;4356920;32;33838;-62
2023/06/15 07:59:47;;;;;;;9.45;3.72;;;;;;;24.85;37.55;99514.72;4357414;32;34389;-62
2023/06/15 08:02:15;;;;;;;5.93;3.28;;;;;;;24.78;38.37;99525.69;4356749;32;33240;-62
2023/06/15 08:04:43;;;;;;;5.05;2.62;;;;;;;24.94;38.44;99518.03;4357124;32;33457;-62
2023/06/15 08:07:12;;;;;;;8.20;3.28;;;;;;;24.98;39.02;99524.81;4356441;32;35127;-61
2023/06/15 08:09:39;;;;;;;8.60;3.40;;;;;;;24.93;40.15;99522.69;4355954;32;33741;-62
2023/06/15 08:12:08;;;;;;;5.25;3.08;;;;;;;24.97;37.05;99523.09;4355200;32;34548;-63
2023/06/15 08:14:36;;;;;;;4.43;2.45;;;;;;;25.02;37.19;99521.41;4356761;32;33246;-62
2023/06/15 08:17:05;;;;;;;6.78;3.45;;;;;;;25.18;38.19;99522.03;4355942;32;35903;-63
2023/06/15 08:19:34;;;;;;;6.82;3.25;;;;;;;25.17;39.22;99518.47;4355059;32;35040;-61
2023/06/15 08:22:02;;;;;;;6.62;2.95;;;;;;;25.25;38.68;99517.38;4356286;32;34106;-63
2023/06/15 08:24:30;;;;;;;5.35;3.05;;;;;;;24.95;40.20;99512.38;4357547;32;34615;-63
2023/06/15 08:26:59;;;;;;;7.70;3.30;;;;;;;25.30;39.37;99523.91;4357507;32;33731;-63
2023/06/15 08:29:26;;;;;;;5.90;3.22;;;;;;;25.39;38.41;99518.16;4351835;32;34023;-62
2023/06/15 08:31:54;;;;;;;5.47;3.42;;;;;;;25.17;39.78;99514.84;4357342;32;33306;-63
2023/06/15 08:34:22;;;;;;;5.80;3.70;;;;;;;24.72;39.19;99522.91;4353151;32;33744;-62
2023/06/15 08:36:49;;;;;;;6.22;3.37;;;;;;;25.28;40.20;99519.69;4355142;32;33559;-62
2023/06/15 08:39:17;;;;;;;5.30;3.12;;;;;;;25.09;38.71;99524.97;4361288;32;33449;-61
2023/06/15 08:41:46;;;;;;;5.95;3.25;;;;;;;25.55;36.66;99518.53;4358174;32;33400;-63
2023/06/15 08:44:15;;;;;;;8.00;3.47;;;;;;;25.56;37.27;99522.13;4356596;32;33802;-63
2023/06/15 08:46:43;;;;;;;7.03;3.05;;;;;;;25.58;36.44;99521.87;4355180;32;34081;-62
2023/06/15 08:49:11;;;;;;;6.47;3.22;;;;;;;25.87;35.59;99520.50;4339784;32;33197;-63
2023/06/15 08:51:39;;;;;;;6.57;3.35;;;;;;;25.57;36.24;99521.03;4343277;32;33849;-63
2023/06/15 08:54:08;;;;;;;5.85;2.47;;;;;;;25.73;35.48;99516.97;4359865;32;33538;-62
2023/06/15 08:56:38;;;;;;;6.32;2.72;;;;;;;25.37;36.19;99514.81;4356137;32;34189;-63
2023/06/15 08:59:06;;;;;;;5.10;2.53;;;;;;;25.72;35.32;99502.44;4358770;32;34127;-63
2023/06/15 09:01:39;;;;;;;5.25;2.92;;;;;;;25.60;33.35;99497.84;4357136;32;33994;-62
2023/06/15 09:04:08;;;;;;;5.57;3.20;;;;;;;25.47;33.47;99506.97;4310188;33;34469;-63
2023/06/15 09:06:35;;;;;;;4.97;2.80;;;;;;;25.49;33.05;99496.63;4312477;33;36486;-64
2023/06/15 09:09:03;;;;;;;7.07;3.05;;;;;;;25.25;34.99;99507.25;4308975;33;33464;-63
2023/06/15 09:11:41;;;;;;;5.12;2.75;;;;;;;25.55;33.72;99507.56;4293010;33;33192;-63
2023/06/15 09:14:09;;;;;;;4.78;2.53;;;;;;;26.09;32.24;99512.78;4311757;33;34882;-63
2023/06/15 09:16:39;;;;;;;6.43;3.17;;;;;;;26.11;32.21;99513.41;4312199;33;33865;-63
2023/06/15 09:19:11;;;;;;;6.93;2.90;;;;;;;25.84;32.02;99510.81;4305862;33;34204;-63
2023/06/15 09:21:48;;;;;;;5.43;2.45;;;;;;;26.40;31.30;99499.03;4314197;33;32791;-63
2023/06/15 09:24:18;;;;;;;7.18;2.72;;;;;;;26.53;31.38;99508.25;4313175;33;33422;-63
2023/06/15 09:26:45;;;;;;;4.25;2.47;;;;;;;26.53;31.92;99497.28;4312170;33;34653;-62
2023/06/15 09:29:13;;;;;;;4.22;2.80;;;;;;;26.81;31.12;99491.31;4309637;33;33774;-62
2023/06/15 09:31:41;;;;;;;6.55;3.12;;;;;;;26.92;30.59;99493.31;4311738;33;31686;-63
2023/06/15 09:34:10;;;;;;;11.35;3.28;;;;;;;26.91;30.36;99494.38;4312807;32;35085;-62
2023/06/15 09:36:44;;;;;;;4.47;2.50;;;;;;;27.06;29.10;99492.13;4358656;32;33784;-62
2023/06/15 09:39:13;;;;;;;4.97;3.10;;;;;;;26.82;29.82;99495.75;4357542;32;34678;-62
2023/06/15 09:41:51;;;;;;;5.87;3.33;;;;;;;27.14;29.94;99494.56;4354713;32;33697;-62
2023/06/15 09:44:21;;;;;;;7.68;2.75;;;;;;;26.51;30.19;99492.00;4351529;32;33820;-62
2023/06/15 09:46:51;;;;;;;9.90;2.62;;;;;;;26.80;29.61;99484.97;4352656;32;33786;-62
2023/06/15 09:49:23;;;;;;;5.20;2.85;;;;;;;26.83;31.28;99486.44;4359898;32;35058;-61
2023/06/15 09:51:51;;;;;;;4.53;2.37;;;;;;;26.22;29.83;99479.75;4352997;32;31944;-62
2023/06/15 09:54:21;;;;;;;4.10;2.25;;;;;;;27.43;29.27;99481.13;4355737;32;34692;-62
2023/06/15 09:56:52;;;;;;;4.03;2.42;;;;;;;26.84;29.50;99483.47;4356134;32;35022;-61
2023/06/15 09:59:21;;;;;;;4.93;2.58;;;;;;;27.08;29.85;99483.63;4359203;32;35033;-62
2023/06/15 10:01:50;;;;;;;4.28;2.60;;;;;;;27.81;28.38;99477.28;4356262;32;32996;-62
2023/06/15 10:04:20;;;;;;;4.78;2.55;;;;;;;27.96;28.57;99480.44;4353731;32;33497;-62
2023/06/15 10:06:50;;;;;;;5.85;2.65;;;;;;;28.05;27.41;99483.66;4341407;32;33957;-62
2023/06/15 10:09:28;;;;;;;5.18;2.80;;;;;;;28.45;26.99;99477.56;4360286;32;33953;-62
2023/06/15 10:12:05;;;;;;;9.35;3.25;;;;;;;28.21;26.73;99468.41;4352867;32;33312;-62
2023/06/15 10:14:55;;;;;;;7.95;2.67;;;;;;;28.03;27.96;99477.59;4353524;32;33669;-63
2023/06/15 10:17:32;;;;;;;5.03;2.37;;;;;;;27.87;27.33;99473.59;4353894;32;34661;-61
2023/06/15 10:20:07;;;;;;;11.50;2.83;;;;;;;28.24;26.89;99471.50;4355937;32;33397;-62
2023/06/15 10:22:45;;;;;;;4.28;2.22;;;;;;;28.13;26.28;99475.09;4357418;32;33607;-63
2023/06/15 10:25:14;;;;;;;6.45;2.25;;;;;;;28.36;26.50;99476.22;4357493;32;33671;-62
2023/06/15 10:27:44;;;;;;;8.93;2.53;;;;;;;28.54;25.20;99471.47;4355933;32;34053;-62
2023/06/15 10:30:28;;;;;;;5.10;2.87;;;;;;;28.62;25.05;99470.28;4357147;32;33659;-62
2023/06/15 10:33:04;;;;;;;;;;;;;;;28.88;24.35;99465.34;4342283;32;34146;-63
2023/06/15 10:35:33;;;;;;;6.15;2.83;;;;;;;29.04;23.62;99464.62;4343390;32;32417;-62
2023/06/15 10:38:17;;;;;;;10.88;3.47;;;;;;;29.29;24.32;99469.84;4358638;32;34140;-62
2023/06/15 10:40:48;;;;;;;5.28;2.85;;;;;;;29.31;24.81;99470.47;4343459;32;35072;-62
2023/06/15 10:43:21;;;;;;;7.55;3.28;;;;;;;29.16;25.42;99468.22;4358629;32;33432;-62
2023/06/15 10:45:48;;;;;;;7.22;2.28;;;;;;;28.84;24.84;99467.75;4357585;32;33921;-62
2023/06/15 10:48:23;;;;;;;5.37;2.55;;;;;;;28.78;24.52;99465.97;4357870;32;35308;-63
2023/06/15 10:50:51;;;;;;;4.93;2.42;;;;;;;28.67;24.06;99472.28;4359071;32;34715;-63
2023/06/15 10:53:27;;;;;;;7.35;2.55;;;;;;;28.96;24.44;99467.75;4353083;32;33636;-62
2023/06/15 10:55:56;;;;;;;6.97;4.25;;;;;;;29.19;25.49;99461.38;4347919;32;33875;-62
2023/06/15 10:58:26;;;;;;;6.40;3.08;;;;;;;29.48;25.32;99449.31;4355188;32;34019;-62
2023/06/15 11:01:16;;;;;;;7.78;3.20;;;;;;;29.12;25.38;99457.94;4361060;32;33772;-63
2023/06/15 11:03:44;;;;;;;4.32;2.50;;;;;;;28.79;24.87;99449.19;4355659;32;34310;-62
2023/06/15 11:06:18;;;;;;;8.40;3.70;;;;;;;29.21;24.95;99459.22;4360293;32;33714;-62
2023/06/15 11:08:51;;;;;;;4.80;2.72;;;;;;;29.19;24.50;99456.72;4359493;32;33369;-62
2023/06/15 11:11:21;;;;;;;4.80;2.40;;;;;;;29.47;24.04;99452.28;4358928;32;34667;-63
2023/06/15 11:14:03;;;;;;;9.30;3.35;;;;;;;29.72;23.72;99449.22;4358468;32;33379;-63
2023/06/15 11:16:32;;;;;;;4.47;2.47;;;;;;;28.72;24.89;99453.97;4358919;32;33867;-63
2023/06/15 11:19:12;;;;;;;6.87;2.92;;;;;;;28.81;25.96;99453.63;4357715;32;34868;-63
2023/06/15 11:21:41;;;;;;;5.40;3.30;;;;;;;29.44;24.79;99450.06;4356187;32;34562;-63
2023/06/15 11:24:13;;;;;;;7.20;3.00;;;;;;;29.18;24.79;99455.03;4359110;32;34354;-63
2023/06/15 11:26:48;;;;;;;5.70;2.55;;;;;;;29.31;22.93;99451.19;4361137;32;33877;-63
2023/06/15 11:29:22;;;;;;;4.35;2.58;;;;;;;29.15;23.38;99457.41;4356663;32;35018;-63
2023/06/15 11:31:50;;;;;;;5.97;3.05;;;;;;;28.75;23.87;99449.91;4358411;32;33387;-62
2023/06/15 11:34:18;;;;;;;5.28;2.83;;;;;;;28.37;23.69;99461.38;4359704;32;33117;-62
2023/06/15 11:36:46;;;;;;;6.32;2.25;;;;;;;28.06;23.31;99458.69;4357785;32;33838;-62
2023/06/15 11:39:33;;;;;;;6.12;2.33;;;;;;;28.38;22.87;99444.63;4349198;32;36032;-63
2023/06/15 11:42:01;;;;;;;4.47;2.33;;;;;;;28.23;23.25;99450.59;4358169;32;34259;-62
2023/06/15 11:44:29;;;;;;;5.15;1.92;;;;;;;28.12;21.85;99447.81;4359443;32;33082;-63
2023/06/15 11:46:59;;;;;;;4.57;2.10;;;;;;;28.21;22.49;99447.22;4358797;32;33661;-63